Time;durP1;ratioP1;P1;durP2;ratioP2;P2;SDS_P1;SDS_P2;PMS_P1;PMS_P2;Temp;Humidity;BMP_temperature;BMP_pressure;BME280_temperature;BME280_humidity;BME280_pressure;Samples;Min_cycle;Max_cycle;Signal;HPM_P1;HPM_P2
2022/10/15 00:01:38;;;;;;;15.03;6.97;;;;;;;6.76;81.45;101219.01;1722138;82;21063;-66
2022/10/15 00:04:10;;;;;;;14.95;7.70;;;;;;;6.79;81.39;101223.29;1722455;83;21015;-65
2022/10/15 00:06:40;;;;;;;15.20;7.45;;;;;;;6.79;81.29;101221.93;1726345;83;21062;-64
2022/10/15 00:09:10;;;;;;;15.50;7.28;;;;;;;6.72;81.35;101212.16;1726183;83;21592;-67
2022/10/15 00:11:40;;;;;;;16.12;8.25;;;;;;;6.72;81.51;101212.66;1724708;82;21023;-65
2022/10/15 00:14:10;;;;;;;19.77;9.08;;;;;;;6.73;81.65;101214.38;1723313;83;21023;-66
2022/10/15 00:16:40;;;;;;;15.72;8.75;;;;;;;6.77;81.64;101213.05;1722575;83;21016;-66
2022/10/15 00:19:10;;;;;;;16.70;8.70;;;;;;;6.82;81.54;101209.37;1706266;83;21064;-64
2022/10/15 00:21:39;;;;;;;18.82;8.53;;;;;;;6.84;81.53;101201.89;1686456;84;21092;-66
2022/10/15 00:24:10;;;;;;;18.55;9.48;;;;;;;6.85;81.51;101202.25;1699830;84;21048;-65
2022/10/15 00:26:41;;;;;;;17.30;9.10;;;;;;;6.86;81.46;101206.18;1687279;84;21027;-66
2022/10/15 00:29:10;;;;;;;15.45;8.38;;;;;;;6.89;81.42;101204.51;1704792;84;21095;-67
2022/10/15 00:31:39;;;;;;;15.32;7.85;;;;;;;6.94;81.36;101208.13;1700159;84;21130;-65
2022/10/15 00:34:10;;;;;;;14.90;8.40;;;;;;;6.98;81.37;101200.86;1705709;84;21051;-67
2022/10/15 00:36:40;;;;;;;13.70;7.85;;;;;;;7.00;81.33;101207.52;1703842;84;21060;-65
2022/10/15 00:39:10;;;;;;;15.25;8.70;;;;;;;7.00;81.52;101195.25;1699278;84;21012;-64
2022/10/15 00:41:42;;;;;;;16.60;8.95;;;;;;;7.03;81.65;101196.30;1708002;82;21008;-66
2022/10/15 00:44:38;;;;;;;14.45;7.50;;;;;;;7.06;81.69;101194.63;1709069;83;21067;-65
2022/10/15 00:47:28;;;;;;;14.83;8.18;;;;;;;7.11;81.67;101195.02;1692585;84;21043;-65
2022/10/15 00:50:13;;;;;;;17.32;8.23;;;;;;;7.17;81.53;101199.87;1699592;82;21059;-66
2022/10/15 00:52:54;;;;;;;15.60;8.15;;;;;;;7.19;81.41;101195.12;1703862;84;21052;-66
2022/10/15 00:55:30;;;;;;;15.38;8.20;;;;;;;7.20;81.40;101200.08;1706622;84;21087;-65
2022/10/15 00:58:07;;;;;;;21.80;10.03;;;;;;;7.20;81.39;101195.48;1688063;84;21075;-64
2022/10/15 01:00:37;;;;;;;23.70;9.40;;;;;;;7.22;81.37;101204.36;1704064;83;21111;-65
2022/10/15 01:03:07;;;;;;;20.30;8.78;;;;;;;7.25;81.38;101199.95;1705130;84;21107;-66
2022/10/15 01:05:37;;;;;;;19.48;9.90;;;;;;;7.29;81.27;101200.50;1704604;84;21056;-65
2022/10/15 01:08:09;;;;;;;20.48;10.03;;;;;;;7.30;81.15;101197.61;1699890;84;21095;-64
2022/10/15 01:11:03;;;;;;;18.65;9.15;;;;;;;7.30;81.08;101194.89;1708503;84;21087;-66
2022/10/15 01:13:48;;;;;;;18.00;9.05;;;;;;;7.34;81.01;101195.43;1690166;84;21059;-65
2022/10/15 01:16:25;;;;;;;19.40;9.10;;;;;;;7.33;80.98;101197.80;1704045;84;21059;-66
2022/10/15 01:19:01;;;;;;;;;;;;;;;7.29;80.83;101197.27;1711963;84;21043;-65
2022/10/15 01:21:42;;;;;;;14.45;8.10;;;;;;;7.25;80.80;101190.92;1711769;84;20164;-65
2022/10/15 01:24:21;;;;;;;15.80;8.35;;;;;;;7.20;80.88;101197.34;1711597;84;21063;-66
2022/10/15 01:27:11;;;;;;;15.32;8.10;;;;;;;7.19;81.01;101192.41;1709214;84;21052;-67
2022/10/15 01:30:00;;;;;;;15.05;8.15;;;;;;;7.22;81.05;101188.00;1711728;84;21051;-64
2022/10/15 01:32:37;;;;;;;17.02;7.75;;;;;;;7.22;81.02;101188.00;1695886;84;21047;-65
2022/10/15 01:35:17;;;;;;;13.53;6.65;;;;;;;7.23;81.01;101183.41;1711718;82;21027;-65
2022/10/15 01:38:04;;;;;;;15.85;7.40;;;;;;;7.25;80.93;101193.64;1711811;84;21027;-66
2022/10/15 01:41:00;;;;;;;14.07;7.22;;;;;;;7.23;80.92;101185.63;1711975;84;21067;-67
2022/10/15 01:43:41;;;;;;;15.45;7.00;;;;;;;7.22;80.98;101189.36;1694035;82;21027;-66
2022/10/15 01:46:53;;;;;;;15.63;7.40;;;;;;;7.22;80.94;101196.18;1711010;84;21075;-66
2022/10/15 01:49:26;;;;;;;13.70;7.42;;;;;;;7.20;80.86;101196.84;1709205;83;21062;-66
2022/10/15 01:51:56;;;;;;;14.68;6.90;;;;;;;7.21;80.75;101202.64;1711932;82;21027;-65
2022/10/15 01:54:26;;;;;;;13.22;6.85;;;;;;;7.22;80.60;101199.41;1711710;84;21099;-66
2022/10/15 01:56:56;;;;;;;13.90;7.10;;;;;;;7.21;80.39;101199.92;1684656;84;21032;-66
2022/10/15 01:59:29;;;;;;;12.68;7.05;;;;;;;7.22;80.28;101202.99;1711567;84;21118;-67
2022/10/15 02:01:58;;;;;;;11.48;7.30;;;;;;;7.17;80.19;101195.80;1711669;84;21055;-65
2022/10/15 02:04:30;;;;;;;14.28;6.85;;;;;;;7.16;80.25;101198.17;1711491;84;21517;-66
2022/10/15 02:07:30;;;;;;;13.90;7.72;;;;;;;7.18;80.29;101198.87;1708427;84;21062;-66
2022/10/15 02:10:29;;;;;;;16.35;7.22;;;;;;;7.21;80.20;101197.70;1709383;84;21036;-64
2022/10/15 02:13:35;;;;;;;13.80;6.55;;;;;;;7.18;80.03;101206.19;1697982;84;21083;-66
2022/10/15 02:16:13;;;;;;;15.85;7.25;;;;;;;7.12;80.06;101200.82;1711718;82;21075;-66
2022/10/15 02:19:05;;;;;;;14.50;6.97;;;;;;;7.09;80.01;101207.09;1713538;83;21043;-66
2022/10/15 02:21:40;;;;;;;12.80;6.50;;;;;;;7.07;80.08;101209.97;1729148;83;21505;-66
2022/10/15 02:24:23;;;;;;;13.65;6.55;;;;;;;7.12;80.06;101215.81;1727428;83;21027;-66
2022/10/15 02:26:56;;;;;;;12.23;6.33;;;;;;;7.17;79.93;101215.38;1729579;83;21106;-65
2022/10/15 02:29:31;;;;;;;11.28;5.90;;;;;;;7.21;79.69;101218.14;1723224;83;21038;-66
2022/10/15 02:32:01;;;;;;;13.28;6.28;;;;;;;7.23;79.50;101206.57;1722179;83;20980;-66
2022/10/15 02:34:32;;;;;;;13.55;6.47;;;;;;;7.26;79.32;101214.44;1703206;83;21055;-66
2022/10/15 02:37:03;;;;;;;11.48;5.65;;;;;;;7.29;79.16;101224.52;1705192;83;21093;-67
2022/10/15 02:39:34;;;;;;;12.03;6.10;;;;;;;7.31;78.88;101225.73;1726536;81;21070;-66
2022/10/15 02:42:04;;;;;;;11.90;5.50;;;;;;;7.32;78.71;101228.80;1726425;81;21506;-67
2022/10/15 02:44:35;;;;;;;12.95;5.87;;;;;;;7.27;78.56;101222.46;1721769;83;21019;-67
2022/10/15 02:47:06;;;;;;;10.18;5.25;;;;;;;7.27;78.54;101225.69;1727971;83;21010;-66
2022/10/15 02:49:36;;;;;;;12.30;6.00;;;;;;;7.28;78.52;101221.95;1725219;83;22207;-64
2022/10/15 02:52:08;;;;;;;11.22;5.72;;;;;;;7.30;78.27;101228.96;1710660;83;21466;-65
2022/10/15 02:54:37;;;;;;;9.23;5.47;;;;;;;7.33;78.00;101226.94;1726529;83;21031;-67
2022/10/15 02:57:07;;;;;;;12.15;6.00;;;;;;;7.36;77.75;101230.20;1716496;82;21522;-66
2022/10/15 02:59:38;;;;;;;11.95;5.37;;;;;;;7.37;77.42;101220.16;1722663;83;21443;-65
2022/10/15 03:02:08;;;;;;;10.88;5.85;;;;;;;7.37;77.24;101216.06;1706529;83;21094;-66
2022/10/15 03:04:38;;;;;;;13.22;6.30;;;;;;;7.36;77.14;101220.66;1729400;83;21496;-66
2022/10/15 03:07:08;;;;;;;13.98;6.40;;;;;;;7.34;77.23;101219.11;1725156;83;21481;-66
2022/10/15 03:09:37;;;;;;;15.00;6.17;;;;;;;7.34;77.38;101221.84;1725097;83;21031;-66
2022/10/15 03:12:07;;;;;;;13.50;6.12;;;;;;;7.35;77.44;101214.01;1729133;81;20999;-66
2022/10/15 03:14:37;;;;;;;11.90;6.08;;;;;;;7.33;77.54;101218.25;1729561;83;21086;-66
2022/10/15 03:17:08;;;;;;;13.30;6.78;;;;;;;7.35;77.62;101220.82;1728897;83;21038;-67
2022/10/15 03:19:37;;;;;;;15.08;7.12;;;;;;;7.38;77.65;101220.00;1726996;83;21070;-67
2022/10/15 03:22:07;;;;;;;14.83;8.05;;;;;;;7.42;77.66;101216.45;1722765;82;21690;-66
2022/10/15 03:24:38;;;;;;;14.47;7.83;;;;;;;7.43;77.76;101219.53;1724136;83;21034;-67
2022/10/15 03:27:07;;;;;;;17.12;9.30;;;;;;;7.44;77.75;101217.16;1722756;83;21027;-65
2022/10/15 03:29:37;;;;;;;22.65;10.95;;;;;;;7.44;77.85;101219.87;1729615;83;21058;-65
2022/10/15 03:32:08;;;;;;;17.12;9.13;;;;;;;7.47;77.91;101222.29;1722838;83;21011;-64
2022/10/15 03:34:38;;;;;;;15.08;8.83;;;;;;;7.45;77.88;101218.86;1725372;82;21520;-65
2022/10/15 03:37:08;;;;;;;18.98;10.08;;;;;;;7.47;77.84;101221.78;1722546;83;21437;-65
2022/10/15 03:39:37;;;;;;;24.23;11.03;;;;;;;7.50;77.85;101224.70;1729430;83;21069;-67
2022/10/15 03:42:07;;;;;;;24.15;12.37;;;;;;;7.50;77.93;101221.97;1722997;83;21031;-65
2022/10/15 03:44:38;;;;;;;22.40;12.37;;;;;;;7.51;78.07;101219.59;1727951;83;20987;-67
2022/10/15 03:47:15;;;;;;;21.42;12.03;;;;;;;7.52;78.23;101218.58;1728112;83;21119;-65
2022/10/15 03:49:47;;;;;;;25.55;11.85;;;;;;;7.53;78.36;101225.75;1724613;81;21059;-65
2022/10/15 03:52:17;;;;;;;23.47;13.05;;;;;;;7.55;78.50;101223.72;1723289;83;21060;-65
2022/10/15 03:54:49;;;;;;;25.17;12.78;;;;;;;7.54;78.67;101219.28;1725644;83;21031;-64
2022/10/15 03:57:21;;;;;;;27.40;13.72;;;;;;;7.50;78.87;101220.61;1722071;83;21055;-67
2022/10/15 03:59:53;;;;;;;29.82;14.45;;;;;;;7.50;79.14;101217.38;1724154;83;21257;-65
2022/10/15 04:02:23;;;;;;;29.10;13.72;;;;;;;7.52;79.25;101218.58;1725912;83;21484;-64
2022/10/15 04:04:55;;;;;;;23.73;12.68;;;;;;;7.51;79.34;101223.17;1722152;82;21059;-67
2022/10/15 04:07:25;;;;;;;25.85;14.10;;;;;;;7.49;79.41;101221.62;1728139;82;21066;-67
2022/10/15 04:09:55;;;;;;;26.60;13.08;;;;;;;7.48;79.54;101223.50;1728008;83;21066;-69
2022/10/15 04:12:27;;;;;;;29.27;14.55;;;;;;;7.47;79.66;101223.14;1725182;83;21078;-66
2022/10/15 04:14:57;;;;;;;30.75;13.68;;;;;;;7.43;79.71;101227.20;1722423;83;21084;-68
2022/10/15 04:17:28;;;;;;;28.55;13.40;;;;;;;7.42;79.82;101228.72;1723926;83;21094;-68
2022/10/15 04:19:58;;;;;;;24.00;12.43;;;;;;;7.40;79.94;101232.97;1718725;83;21115;-67
2022/10/15 04:22:28;;;;;;;31.73;15.85;;;;;;;7.38;80.08;101228.69;1711772;84;21015;-67
2022/10/15 04:25:00;;;;;;;26.77;13.60;;;;;;;7.38;80.32;101225.45;1703096;83;21054;-66
2022/10/15 04:27:31;;;;;;;27.13;12.85;;;;;;;7.41;80.52;101225.64;1711813;84;21016;-66
2022/10/15 04:30:10;;;;;;;27.17;13.22;;;;;;;7.42;80.59;101223.27;1711772;84;21044;-68
2022/10/15 04:32:42;;;;;;;24.45;11.33;;;;;;;7.44;80.65;101231.64;1711789;84;21075;-66
2022/10/15 04:35:13;;;;;;;20.90;11.15;;;;;;;7.42;80.60;101232.30;1711538;84;21114;-66
2022/10/15 04:37:48;;;;;;;23.00;11.38;;;;;;;7.41;80.64;101228.38;1710952;83;21063;-66
2022/10/15 04:40:18;;;;;;;25.12;11.97;;;;;;;7.38;80.66;101226.81;1711639;84;21031;-65
2022/10/15 04:42:49;;;;;;;22.52;11.80;;;;;;;7.33;80.78;101220.98;1685314;84;21056;-66
2022/10/15 04:45:20;;;;;;;28.38;15.80;;;;;;;7.34;80.98;101227.28;1711595;84;21063;-67
2022/10/15 04:47:51;;;;;;;24.75;11.83;;;;;;;7.38;81.07;101226.81;1711951;84;21118;-67
2022/10/15 04:50:20;;;;;;;19.48;10.13;;;;;;;7.40;81.08;101220.70;1711693;84;21509;-66
2022/10/15 04:53:08;;;;;;;;;;;;;;;7.43;81.03;101225.84;1714148;84;21027;-66
2022/10/15 04:55:39;;;;;;;19.32;9.55;;;;;;;7.47;80.91;101231.83;1693261;84;20218;-66
2022/10/15 04:58:09;;;;;;;16.27;8.60;;;;;;;7.49;80.81;101236.63;1711733;82;21099;-67
2022/10/15 05:00:39;;;;;;;15.25;7.85;;;;;;;7.51;80.69;101231.86;1711888;84;21091;-68
2022/10/15 05:03:13;;;;;;;16.67;8.88;;;;;;;7.53;80.30;101239.38;1709199;84;21005;-67
2022/10/15 05:05:50;;;;;;;18.45;7.62;;;;;;;7.52;79.96;101241.25;1661440;86;21007;-68
2022/10/15 05:08:21;;;;;;;15.30;7.60;;;;;;;7.54;79.67;101235.64;1662267;85;21485;-67
2022/10/15 05:11:04;;;;;;;17.25;8.00;;;;;;;7.53;79.49;101236.66;1676298;83;21047;-69
2022/10/15 05:13:34;;;;;;;19.37;8.58;;;;;;;7.54;79.45;101233.77;1711549;84;21074;-64
2022/10/15 05:16:14;;;;;;;16.37;8.03;;;;;;;7.55;79.45;101240.94;1711725;84;21043;-65
2022/10/15 05:18:48;;;;;;;18.57;7.83;;;;;;;7.59;79.45;101244.20;1709882;84;21060;-68
2022/10/15 05:21:19;;;;;;;14.73;6.30;;;;;;;7.64;79.05;101244.59;1723249;83;21034;-68
2022/10/15 05:23:52;;;;;;;15.32;7.67;;;;;;;7.69;78.50;101250.42;1707957;83;21443;-66
2022/10/15 05:26:40;;;;;;;17.05;7.33;;;;;;;7.73;77.91;101251.82;1725780;83;21018;-65
2022/10/15 05:29:10;;;;;;;18.50;8.63;;;;;;;7.77;77.57;101253.72;1729154;81;21077;-67
2022/10/15 05:31:40;;;;;;;14.58;8.00;;;;;;;7.76;77.38;101254.23;1728398;83;21041;-65
2022/10/15 05:34:12;;;;;;;20.37;8.68;;;;;;;7.78;77.52;101249.47;1719559;83;21055;-65
2022/10/15 05:36:46;;;;;;;15.13;7.45;;;;;;;7.82;77.64;101245.95;1704385;83;21019;-65
2022/10/15 05:39:19;;;;;;;16.80;6.92;;;;;;;7.87;77.54;101254.52;1726164;83;21019;-67
2022/10/15 05:41:48;;;;;;;16.17;7.10;;;;;;;7.93;77.15;101254.73;1725969;81;21022;-65
2022/10/15 05:44:18;;;;;;;10.75;6.28;;;;;;;7.99;76.57;101255.11;1729361;83;21474;-67
2022/10/15 05:46:48;;;;;;;10.95;5.72;;;;;;;8.04;75.99;101260.95;1725746;81;21051;-68
2022/10/15 05:49:20;;;;;;;14.50;6.72;;;;;;;8.08;75.17;101255.52;1722292;83;21439;-66
2022/10/15 05:51:53;;;;;;;11.85;6.03;;;;;;;8.14;74.62;101256.23;1721386;83;21027;-65
2022/10/15 05:54:27;;;;;;;15.23;6.60;;;;;;;8.19;73.98;101262.92;1722959;83;21019;-67
2022/10/15 05:56:57;;;;;;;13.80;6.55;;;;;;;8.24;73.56;101257.84;1723050;83;21035;-65
2022/10/15 05:59:27;;;;;;;15.63;6.65;;;;;;;8.29;73.19;101251.89;1694742;84;21047;-66
2022/10/15 06:01:59;;;;;;;12.03;6.12;;;;;;;8.35;72.85;101251.78;1683987;85;21043;-66
2022/10/15 06:04:31;;;;;;;13.03;5.30;;;;;;;8.38;72.36;101256.41;1673131;85;21087;-66
2022/10/15 06:07:03;;;;;;;14.50;5.78;;;;;;;8.42;71.88;101258.30;1691122;85;21043;-67
2022/10/15 06:09:33;;;;;;;11.63;5.62;;;;;;;8.44;71.44;101255.75;1673308;85;21582;-66
2022/10/15 06:12:04;;;;;;;11.28;5.12;;;;;;;8.46;71.09;101257.84;1679386;85;21468;-66
2022/10/15 06:14:33;;;;;;;11.20;5.40;;;;;;;8.47;70.62;101259.56;1688601;85;21061;-68
2022/10/15 06:17:05;;;;;;;18.35;5.62;;;;;;;8.50;70.23;101265.20;1674499;85;21083;-68
2022/10/15 06:19:34;;;;;;;12.25;5.40;;;;;;;8.52;69.49;101261.29;1666016;85;21125;-66
2022/10/15 06:22:05;;;;;;;14.75;5.17;;;;;;;8.52;68.98;101263.16;1683328;85;21062;-66
2022/10/15 06:24:35;;;;;;;12.45;5.28;;;;;;;8.52;68.70;101265.39;1694735;83;21051;-67
2022/10/15 06:27:04;;;;;;;12.75;5.22;;;;;;;8.53;68.52;101273.08;1694594;85;21506;-68
2022/10/15 06:29:34;;;;;;;12.28;5.03;;;;;;;8.53;68.39;101271.20;1680620;85;21051;-68
2022/10/15 06:32:03;;;;;;;12.00;4.90;;;;;;;8.53;68.24;101272.56;1694708;85;21070;-66
2022/10/15 06:34:33;;;;;;;13.20;4.75;;;;;;;8.55;67.97;101266.42;1684389;84;21560;-67
2022/10/15 06:37:02;;;;;;;8.45;4.15;;;;;;;8.57;67.49;101270.36;1685563;85;21051;-69
2022/10/15 06:39:31;;;;;;;8.00;4.08;;;;;;;8.57;66.97;101263.02;1694775;85;21058;-67
2022/10/15 06:42:02;;;;;;;9.68;3.90;;;;;;;8.61;66.49;101274.98;1686123;85;21059;-67
2022/10/15 06:44:32;;;;;;;12.58;4.28;;;;;;;8.62;66.17;101275.33;1667693;85;21494;-68
2022/10/15 06:47:03;;;;;;;9.63;3.72;;;;;;;8.63;65.87;101276.53;1712299;82;21055;-69
2022/10/15 06:49:32;;;;;;;9.90;3.98;;;;;;;8.67;65.27;101277.06;1702668;83;21072;-67
2022/10/15 06:52:02;;;;;;;9.98;4.10;;;;;;;8.69;65.03;101277.75;1721125;83;21003;-66
2022/10/15 06:54:33;;;;;;;12.80;4.92;;;;;;;8.72;64.73;101276.92;1721579;83;21003;-66
2022/10/15 06:57:03;;;;;;;11.55;4.30;;;;;;;8.75;64.43;101277.95;1720676;83;21016;-66
2022/10/15 06:59:34;;;;;;;10.78;3.87;;;;;;;8.79;64.11;101284.80;1720110;83;21635;-66
2022/10/15 07:02:05;;;;;;;7.75;3.70;;;;;;;8.83;64.00;101288.06;1719850;83;21046;-66
2022/10/15 07:04:35;;;;;;;8.35;3.90;;;;;;;8.86;63.59;101289.95;1720607;83;21091;-69
2022/10/15 07:07:05;;;;;;;12.28;4.60;;;;;;;8.90;63.15;101290.48;1720712;83;21485;-70
2022/10/15 07:09:35;;;;;;;13.72;6.05;;;;;;;8.94;63.16;101290.49;1720956;83;21497;-70
2022/10/15 07:12:07;;;;;;;11.85;5.28;;;;;;;8.98;63.09;101280.09;1721297;82;21007;-67
2022/10/15 07:14:36;;;;;;;12.50;5.10;;;;;;;9.03;63.17;101280.45;1720642;83;21046;-66
2022/10/15 07:17:08;;;;;;;10.53;4.40;;;;;;;9.08;63.14;101291.22;1719730;83;21020;-66
2022/10/15 07:19:38;;;;;;;9.15;3.75;;;;;;;9.12;62.94;101284.95;1721532;83;21066;-67
2022/10/15 07:22:10;;;;;;;10.55;3.98;;;;;;;9.16;62.23;101285.81;1648051;86;21633;-67
2022/10/15 07:24:39;;;;;;;8.05;3.60;;;;;;;9.23;61.78;101285.14;1644908;87;21590;-66
2022/10/15 07:27:09;;;;;;;12.58;4.40;;;;;;;9.27;61.63;101281.05;1645022;87;21103;-66
2022/10/15 07:29:40;;;;;;;10.20;4.00;;;;;;;9.34;61.53;101288.92;1644985;87;21143;-67
2022/10/15 07:32:10;;;;;;;11.75;4.00;;;;;;;9.37;61.21;101292.69;1646580;87;21115;-68
2022/10/15 07:34:40;;;;;;;5.97;3.00;;;;;;;9.43;61.36;101297.48;1653164;86;21115;-68
2022/10/15 07:37:09;;;;;;;6.92;3.00;;;;;;;9.46;60.47;101293.91;1651767;86;21431;-66
2022/10/15 07:39:38;;;;;;;6.72;2.95;;;;;;;9.53;59.74;101299.55;1665762;84;21028;-67
2022/10/15 07:42:11;;;;;;;8.30;3.00;;;;;;;9.69;59.69;101293.24;1699323;84;21051;-66
2022/10/15 07:44:42;;;;;;;6.97;2.85;;;;;;;10.05;59.58;101292.41;1652637;86;21030;-67
2022/10/15 07:47:11;;;;;;;5.25;2.58;;;;;;;10.58;58.63;101299.22;1654923;86;21044;-67
2022/10/15 07:49:40;;;;;;;5.08;2.62;;;;;;;11.12;57.21;101297.48;1647845;86;21058;-67
2022/10/15 07:52:12;;;;;;;16.12;3.10;;;;;;;11.64;55.66;101295.44;1654101;86;21096;-65
2022/10/15 07:54:41;;;;;;;5.12;2.45;;;;;;;12.16;53.93;101296.09;1658477;86;21078;-66
2022/10/15 07:57:11;;;;;;;4.03;2.20;;;;;;;12.68;52.54;101294.19;1656571;86;21464;-67
2022/10/15 07:59:41;;;;;;;6.42;3.02;;;;;;;13.20;50.98;101293.77;1646306;86;21035;-65
2022/10/15 08:02:15;;;;;;;5.40;2.77;;;;;;;13.62;49.69;101297.96;1643610;84;21118;-69
2022/10/15 08:04:46;;;;;;;9.25;3.62;;;;;;;14.03;48.76;101289.06;1705129;83;21016;-68
2022/10/15 08:07:16;;;;;;;5.78;2.47;;;;;;;14.49;46.88;101287.25;1706873;84;21083;-69
2022/10/15 08:09:47;;;;;;;4.75;2.30;;;;;;;14.78;46.10;101289.77;1688439;84;21075;-68
2022/10/15 08:12:21;;;;;;;6.53;2.60;;;;;;;15.01;45.43;101293.63;1687348;84;21064;-69
2022/10/15 08:14:50;;;;;;;5.47;2.65;;;;;;;15.25;44.63;101292.24;1704354;84;21036;-68
2022/10/15 08:17:19;;;;;;;5.50;2.35;;;;;;;15.43;43.99;101284.77;1704169;84;21444;-69
2022/10/15 08:19:49;;;;;;;6.42;2.70;;;;;;;15.58;42.99;101290.99;1652009;86;21107;-69
2022/10/15 08:22:18;;;;;;;5.30;2.62;;;;;;;15.61;42.17;101291.98;1653661;86;21092;-71
2022/10/15 08:24:49;;;;;;;8.15;2.50;;;;;;;15.56;42.10;101293.08;1655279;86;21094;-69
2022/10/15 08:27:17;;;;;;;4.80;2.70;;;;;;;15.54;41.72;101292.44;1658037;86;21544;-70
2022/10/15 08:29:48;;;;;;;4.20;2.50;;;;;;;15.49;41.63;101294.98;1652147;86;21088;-68
2022/10/15 08:32:18;;;;;;;4.95;2.80;;;;;;;15.36;41.71;101292.17;1653382;86;21065;-70
2022/10/15 08:34:48;;;;;;;3.05;2.08;;;;;;;15.25;41.84;101295.53;1655797;86;21050;-70
2022/10/15 08:37:17;;;;;;;6.78;2.25;;;;;;;15.14;41.66;101287.31;1669852;83;21043;-69
2022/10/15 08:39:46;;;;;;;5.15;2.30;;;;;;;14.99;41.59;101291.60;1715814;82;21063;-68
2022/10/15 08:42:21;;;;;;;4.97;2.80;;;;;;;14.87;42.02;101289.92;1712933;83;21540;-69
2022/10/15 08:44:54;;;;;;;4.00;2.20;;;;;;;14.82;42.29;101294.34;1715752;83;21456;-68
2022/10/15 08:47:37;;;;;;;4.08;2.10;;;;;;;14.75;42.13;101294.31;1709433;83;21065;-68
2022/10/15 08:50:40;;;;;;;4.33;2.30;;;;;;;14.66;42.22;101293.30;1709784;83;20996;-68
2022/10/15 08:53:15;;;;;;;4.55;2.05;;;;;;;14.50;41.92;101285.67;1703981;83;21095;-71
2022/10/15 08:55:47;;;;;;;5.92;1.95;;;;;;;14.34;42.53;101289.23;1700068;83;21075;-67
2022/10/15 08:58:45;;;;;;;4.83;1.80;;;;;;;14.26;42.67;101283.30;1705698;83;21032;-69
2022/10/15 09:01:32;;;;;;;3.12;1.60;;;;;;;14.18;42.66;101291.20;1707857;83;21008;-69
2022/10/15 09:04:38;;;;;;;4.55;1.82;;;;;;;14.09;42.79;101288.79;1698271;83;21094;-68
2022/10/15 09:07:15;;;;;;;5.37;1.92;;;;;;;13.98;42.73;101292.08;1714035;83;21580;-68
2022/10/15 09:09:54;;;;;;;2.50;1.70;;;;;;;13.85;43.06;101283.17;1708852;83;21051;-69
2022/10/15 09:12:44;;;;;;;7.03;1.82;;;;;;;13.77;43.27;101282.78;1710174;83;21047;-69
2022/10/15 09:15:17;;;;;;;6.35;2.12;;;;;;;13.70;43.76;101284.62;1705527;82;21093;-70
2022/10/15 09:17:49;;;;;;;6.17;2.10;;;;;;;13.67;44.24;101285.53;1708592;84;21067;-69
2022/10/15 09:20:35;;;;;;;3.62;1.95;;;;;;;13.66;44.40;101283.30;1698271;82;21197;-70
2022/10/15 09:23:09;;;;;;;4.40;2.90;;;;;;;13.61;44.60;101282.48;1717960;83;21533;-70
2022/10/15 09:25:39;;;;;;;4.08;2.15;;;;;;;13.56;44.84;101281.37;1715745;83;21032;-69
2022/10/15 09:28:10;;;;;;;5.72;2.40;;;;;;;13.54;44.96;101291.20;1667918;83;21201;-69
2022/10/15 09:30:47;;;;;;;6.03;1.72;;;;;;;13.53;44.59;101287.27;1715892;83;21122;-68
2022/10/15 09:33:30;;;;;;;4.17;1.62;;;;;;;13.52;43.46;101291.06;1712618;83;21083;-67
2022/10/15 09:36:24;;;;;;;7.75;2.35;;;;;;;13.48;43.72;101291.98;1707783;83;21133;-69
2022/10/15 09:39:04;;;;;;;4.67;1.75;;;;;;;13.45;44.09;101280.51;1715115;83;21498;-69
2022/10/15 09:41:39;;;;;;;5.45;2.08;;;;;;;13.41;44.14;101276.44;1691626;83;21082;-68
2022/10/15 09:44:12;;;;;;;7.45;2.15;;;;;;;13.36;44.83;101278.40;1708735;83;21490;-69
2022/10/15 09:46:48;;;;;;;5.58;2.10;;;;;;;13.35;44.44;101275.84;1688968;84;21087;-69
2022/10/15 09:49:27;;;;;;;5.75;2.20;;;;;;;13.32;44.46;101277.94;1716471;83;21067;-68
2022/10/15 09:52:03;;;;;;;3.37;2.08;;;;;;;13.33;44.81;101282.92;1708077;83;21066;-69
2022/10/15 09:54:53;;;;;;;6.70;2.70;;;;;;;13.30;44.59;101278.66;1713468;83;21011;-69
2022/10/15 09:57:22;;;;;;;7.58;2.17;;;;;;;13.29;44.81;101281.08;1712157;83;21058;-70
2022/10/15 09:59:59;;;;;;;5.72;2.52;;;;;;;13.30;44.86;101273.15;1715734;83;21448;-68
2022/10/15 10:02:29;;;;;;;5.83;2.20;;;;;;;13.29;44.70;101274.72;1708644;83;21516;-69
2022/10/15 10:05:00;;;;;;;4.58;2.60;;;;;;;13.28;44.73;101273.02;1711265;83;21073;-67
2022/10/15 10:07:36;;;;;;;7.75;2.72;;;;;;;13.25;44.69;101274.25;1708654;83;21111;-69
2022/10/15 10:10:22;;;;;;;7.12;3.42;;;;;;;13.21;44.87;101275.69;1711210;83;21043;-69
2022/10/15 10:12:52;;;;;;;9.33;3.10;;;;;;;13.19;44.93;101275.03;1712786;83;21023;-68
2022/10/15 10:15:35;;;;;;;7.22;3.17;;;;;;;13.20;45.13;101271.75;1655979;86;21503;-69
2022/10/15 10:18:09;;;;;;;7.97;3.12;;;;;;;13.21;43.84;101270.70;1653060;86;21972;-70
2022/10/15 10:20:42;;;;;;;8.75;3.37;;;;;;;13.19;44.19;101274.18;1656241;86;21102;-66
2022/10/15 10:23:23;;;;;;;12.63;3.35;;;;;;;13.17;44.33;101268.02;1626847;87;21641;-69
2022/10/15 10:25:53;;;;;;;5.40;2.75;;;;;;;13.20;44.06;101271.75;1642907;87;21060;-69
2022/10/15 10:28:30;;;;;;;5.83;3.35;;;;;;;13.26;44.41;101280.61;1626947;87;21075;-68
2022/10/15 10:31:04;;;;;;;;;;;;;;;13.28;44.20;101275.77;1644608;87;21056;-70
2022/10/15 10:33:42;;;;;;;6.30;3.40;;;;;;;13.28;44.34;101274.39;1675715;84;20248;-69
2022/10/15 10:36:30;;;;;;;9.15;2.85;;;;;;;13.26;44.66;101275.11;1708847;84;21161;-68
2022/10/15 10:39:30;;;;;;;8.43;2.42;;;;;;;13.25;44.29;101270.13;1689589;84;21020;-70
2022/10/15 10:42:06;;;;;;;5.05;2.10;;;;;;;13.24;44.04;101267.05;1707199;84;21037;-69
2022/10/15 10:44:40;;;;;;;8.60;2.08;;;;;;;13.26;44.06;101260.83;1707719;84;21048;-68
2022/10/15 10:47:24;;;;;;;2.95;1.60;;;;;;;13.29;43.27;101260.95;1686990;84;21562;-70
2022/10/15 10:49:59;;;;;;;7.37;1.95;;;;;;;13.28;42.65;101266.13;1705745;84;21339;-69
2022/10/15 10:52:36;;;;;;;3.77;1.40;;;;;;;13.24;42.37;101265.67;1679494;84;21110;-68
2022/10/15 10:55:20;;;;;;;3.98;1.40;;;;;;;13.24;42.63;101266.19;1707610;84;21087;-68
2022/10/15 10:57:57;;;;;;;5.03;1.30;;;;;;;13.23;42.74;101257.61;1704536;84;21052;-68
2022/10/15 11:00:44;;;;;;;4.87;1.57;;;;;;;13.21;42.61;101254.20;1707458;84;21102;-68
2022/10/15 11:03:31;;;;;;;8.90;1.77;;;;;;;13.21;42.27;101262.45;1703292;83;21506;-70
2022/10/15 11:06:33;;;;;;;4.67;1.65;;;;;;;13.19;42.58;101261.80;1702608;84;21032;-69
2022/10/15 11:09:26;;;;;;;3.12;1.62;;;;;;;13.17;42.60;101253.73;1711294;84;21544;-69
2022/10/15 11:12:31;;;;;;;6.65;1.80;;;;;;;13.17;42.82;101257.86;1710660;83;21099;-67
2022/10/15 11:15:34;;;;;;;5.67;1.25;;;;;;;13.17;42.79;101252.88;1623114;88;21059;-67
2022/10/15 11:18:25;;;;;;;4.72;1.55;;;;;;;13.19;42.53;101254.91;1622770;88;21035;-69
2022/10/15 11:21:19;;;;;;;5.87;1.65;;;;;;;13.20;42.70;101246.98;1616613;88;21568;-70
2022/10/15 11:24:14;;;;;;;3.90;1.35;;;;;;;13.22;43.02;101251.77;1618717;88;21087;-71
2022/10/15 11:27:27;;;;;;;1.55;1.07;;;;;;;13.21;43.27;101248.17;1609157;88;21104;-67
2022/10/15 11:30:02;;;;;;;3.92;1.32;;;;;;;13.24;43.27;101252.43;1621384;88;21097;-70
2022/10/15 11:32:50;;;;;;;6.92;1.30;;;;;;;13.22;42.89;101248.50;1624154;84;21051;-70
2022/10/15 11:35:52;;;;;;;5.25;1.80;;;;;;;13.21;43.39;101256.95;1707051;84;21028;-68
2022/10/15 11:38:49;;;;;;;4.53;1.60;;;;;;;13.19;43.01;101246.66;1710995;84;21103;-69
2022/10/15 11:41:54;;;;;;;6.80;1.80;;;;;;;13.19;42.87;101246.66;1705845;84;21068;-70
2022/10/15 11:44:28;;;;;;;6.30;1.95;;;;;;;13.20;42.69;101246.98;1705605;84;21115;-68
2022/10/15 11:47:12;;;;;;;6.80;2.22;;;;;;;13.21;42.71;101247.31;1709428;84;21103;-69
2022/10/15 11:50:05;;;;;;;8.90;2.17;;;;;;;13.25;42.57;101244.50;1693186;84;21099;-68
2022/10/15 11:53:26;;;;;;;4.72;2.10;;;;;;;13.26;42.68;101239.33;1690744;84;21047;-68
2022/10/15 11:56:21;;;;;;;4.12;1.90;;;;;;;13.26;42.60;101237.95;1692327;84;21068;-68
2022/10/15 11:59:04;;;;;;;7.67;2.00;;;;;;;13.24;42.76;101241.42;1701230;84;21055;-67
2022/10/15 12:01:40;;;;;;;4.08;1.75;;;;;;;13.25;42.63;101236.25;1683176;83;21496;-69
2022/10/15 12:04:35;;;;;;;4.95;1.92;;;;;;;13.27;42.64;101236.91;1702938;84;21016;-68